This is the latest recevied weather packets stored in our database for station/object VK2XSE. If no packets are shown the sender has not sent any weather packets the latest 1 day(s).
| Time | Temp. | Humidity | Pressure | Rain* | Wind** | Luminosity | Snow |
|---|---|---|---|---|---|---|---|
| 1778055317 | 14.44° C | 66% | 1020.2 hPa | 0 mm | - | 0 W/m² | - |
| 1778054717 | 15° C | 65% | 1020.2 hPa | 0 mm | - | 0 W/m² | - |
| 1778054117 | 15° C | 64% | 1020.2 hPa | 0 mm | - | 0 W/m² | - |
| 1778053517 | 15° C | 64% | 1020 hPa | 0 mm | - | 0 W/m² | - |
| 1778052917 | 15.56° C | 65% | 1019.9 hPa | 0 mm | - | 0 W/m² | - |
| 1778052317 | 15.56° C | 65% | 1019.8 hPa | 0 mm | - | 3 W/m² | - |
| 1778051717 | 15.56° C | 64% | 1019.7 hPa | 0 mm | - | 14 W/m² | - |
| 1778051117 | 15.56° C | 65% | 1019.6 hPa | 0 mm | - | 31 W/m² | - |
| 1778050517 | 15.56° C | 65% | 1019.7 hPa | 0 mm | - | 60 W/m² | - |
| 1778049917 | 15.56° C | 65% | 1019.8 hPa | 0 mm | - | 35 W/m² | - |
| 1778049317 | 15.56° C | 65% | 1019.8 hPa | 0 mm | - | 53 W/m² | - |
| 1778048717 | 16.11° C | 64% | 1019.8 hPa | 0 mm | - | 74 W/m² | - |
| 1778048117 | 16.11° C | 63% | 1019.9 hPa | 0 mm | - | 73 W/m² | - |
| 1778046917 | 16.67° C | 59% | 1019.9 hPa | 0 mm | - | 178 W/m² | - |
| 1778043918 | 16.11° C | 63% | 1020.1 hPa | 0 mm | - | 143 W/m² | - |
| 1778043318 | 16.11° C | 63% | 1020.1 hPa | 0 mm | - | 135 W/m² | - |
| 1778039718 | 15.56° C | 62% | 1020.6 hPa | 0 mm | - | 195 W/m² | - |
| 1778038518 | 16.11° C | 63% | 1020.7 hPa | 0 mm | - | 208 W/m² | - |
| 1778037318 | 16.11° C | 63% | 1020.9 hPa | 0 mm | - | 223 W/m² | - |
| 1778036718 | 16.11° C | 64% | 1021 hPa | 0 mm | - | 282 W/m² | - |
| 1778036118 | 16.11° C | 66% | 1021.1 hPa | 0 mm | - | 231 W/m² | - |
| 1778034918 | 15.56° C | 67% | 1021.4 hPa | 0 mm | - | 214 W/m² | - |
| 1778034318 | 15.56° C | 68% | 1021.6 hPa | 0 mm | - | 249 W/m² | - |
| 1778033718 | 15.56° C | 68% | 1021.8 hPa | 0 mm | - | 245 W/m² | - |
| 1778033118 | 15.56° C | 69% | 1022 hPa | 0 mm | - | 302 W/m² | - |
* Rain latest hour (hover to see other rain measurements)
** Current wind speed in m/s (hover to see current wind gust speed)